»·PEaware :: UAL1228 KSFO-KPHX

UAL1228 :: KSFO-KPHX

FLIGHT INFORMATION

Flight Status: Arrived
Operator:
United Airlines
More flights by this operator :: More flights under this callsign
Pilot: Michael M. (12217)
Aircraft: BOEING 737-300
(B733)
More flights by this aircraft type
Origin: KSFO San Francisco Intl
United States
Destination: KPHX Phoenix Sky Harbor Intl
United States
More flights between these airports :: More routes between these airports
Route: +SSTIK3 LOSHN BOILE BLH HYDRR1
File this flight plan on PilotEdge
Remarks:
Altitude:
(Current/Filed)
37,000ft
Speed:
(Current/Filed)
510kts
Departed: 09-Feb-18 10:09 AM
Arrived: 09-Feb-18 11:47 AM
Distance/Time
Traveled:
565nm/1:38
Distance/Time
To Go:
Arrived

Flight Plot

Page will automatically refresh every two minutes.


Map Options




Map Legend


Flown Route
Filed Route
Departure Airport
Arrival Airport
Navaid (VOR, NDB)
Fix

Horizontal Profiles

Position Reports

Time Latitude Longitude Heading Altitude Ground
Speed
09-Feb-18 09:42 37.612387 -122.383216 332 20ft 0kts
09-Feb-18 09:43 37.612387 -122.383216 332 20ft 0kts
09-Feb-18 09:44 37.612387 -122.383216 332 20ft 0kts
09-Feb-18 09:45 37.612387 -122.383216 332 20ft 0kts
09-Feb-18 09:46 37.612387 -122.383216 332 20ft 0kts
09-Feb-18 09:47 37.612387 -122.383216 332 20ft 0kts
09-Feb-18 09:48 37.612387 -122.383216 332 20ft 0kts
09-Feb-18 09:49 37.612387 -122.383216 332 20ft 0kts
09-Feb-18 09:50 37.612387 -122.383216 332 20ft 0kts
09-Feb-18 09:51 37.612387 -122.383216 332 20ft 0kts
09-Feb-18 09:51 37.612387 -122.383216 332 20ft 0kts
09-Feb-18 09:53 37.612387 -122.383216 332 20ft 0kts
09-Feb-18 09:53 37.612387 -122.383216 332 20ft 0kts
09-Feb-18 09:55 37.612387 -122.383216 332 20ft 0kts
09-Feb-18 09:55 37.612387 -122.383216 332 20ft 0kts
09-Feb-18 09:56 37.612387 -122.383216 332 20ft 0kts
09-Feb-18 09:57 37.612387 -122.383216 332 20ft 0kts
09-Feb-18 09:58 37.612387 -122.383216 332 20ft 0kts
09-Feb-18 10:00 37.612387 -122.383216 332 20ft 0kts
09-Feb-18 10:00 37.612387 -122.383216 332 20ft 0kts
09-Feb-18 10:01 37.612387 -122.383216 332 20ft 0kts
09-Feb-18 10:02 37.612387 -122.383216 332 20ft 0kts
09-Feb-18 10:03 37.612387 -122.383216 332 20ft 0kts
09-Feb-18 10:04 37.612387 -122.383216 332 20ft 0kts
09-Feb-18 10:05 37.612383 -122.383213 332 20ft 0kts
09-Feb-18 10:06 37.611877 -122.383213 1 20ft 2kts
09-Feb-18 10:07 37.611679 -122.383071 218 20ft 0kts
09-Feb-18 10:08 37.611619 -122.383127 213 20ft 0kts
09-Feb-18 10:09 37.611619 -122.383127 213 20ft 0kts
09-Feb-18 10:10 37.611619 -122.383127 213 20ft 0kts
09-Feb-18 10:11 37.611259 -122.383381 206 20ft 8kts
09-Feb-18 10:12 37.609320 -122.383278 119 20ft 0kts
09-Feb-18 10:13 37.609320 -122.383278 119 20ft 0kts
09-Feb-18 10:14 37.609235 -122.382062 36 20ft 10kts
09-Feb-18 10:15 37.625540 -122.371281 22 732ft 129kts
09-Feb-18 10:16 37.674171 -122.362295 6 2491ft 225kts
09-Feb-18 10:17 37.696677 -122.416360 223 5630ft 252kts
09-Feb-18 10:18 37.628169 -122.437040 191 8666ft 269kts
09-Feb-18 10:19 37.553530 -122.456701 194 10134ft 283kts
09-Feb-18 10:20 37.478944 -122.453725 144 12953ft 293kts
09-Feb-18 10:21 37.426551 -122.376343 126 15454ft 302kts
09-Feb-18 10:22 37.373162 -122.293013 127 17757ft 313kts
09-Feb-18 10:23 37.325326 -122.218797 127 19581ft 323kts
09-Feb-18 10:24 37.267921 -122.129988 127 21514ft 333kts
09-Feb-18 10:25 37.209029 -122.039129 127 23262ft 343kts
09-Feb-18 10:26 37.148382 -121.945822 127 24849ft 352kts
09-Feb-18 10:27 37.085876 -121.849932 127 26337ft 359kts
09-Feb-18 10:28 37.022330 -121.752725 126 27744ft 363kts
09-Feb-18 10:29 36.960310 -121.658119 127 28905ft 371kts
09-Feb-18 10:30 36.891708 -121.553798 127 29006ft 423kts
09-Feb-18 10:31 36.814008 -121.436452 127 29562ft 461kts
09-Feb-18 10:32 36.734925 -121.316953 127 31837ft 450kts
09-Feb-18 10:34 36.658633 -121.204256 128 35069ft 400kts
09-Feb-18 10:35 36.585854 -121.092846 127 35144ft 430kts
09-Feb-18 10:36 36.507308 -120.975366 128 35494ft 451kts
09-Feb-18 10:37 36.427454 -120.857742 127 36775ft 446kts
09-Feb-18 10:38 36.347887 -120.738679 127 37171ft 453kts
09-Feb-18 10:39 36.267761 -120.619161 127 37157ft 450kts
09-Feb-18 10:40 36.189195 -120.502367 127 37160ft 451kts
09-Feb-18 10:41 36.111099 -120.386675 127 37160ft 451kts
09-Feb-18 10:42 36.031597 -120.269051 128 37165ft 451kts
09-Feb-18 10:43 35.951133 -120.150642 128 37165ft 451kts
09-Feb-18 10:44 35.871453 -120.034054 128 37149ft 451kts
09-Feb-18 10:45 35.789376 -119.917547 129 37169ft 451kts
09-Feb-18 10:46 35.707406 -119.801035 129 37168ft 451kts
09-Feb-18 10:47 35.625393 -119.684764 129 37166ft 451kts
09-Feb-18 10:48 35.543301 -119.568780 129 37166ft 451kts
09-Feb-18 10:49 35.461064 -119.452985 129 37164ft 451kts
09-Feb-18 10:50 35.380418 -119.339799 129 37143ft 452kts
09-Feb-18 10:51 35.298047 -119.224310 129 37157ft 452kts
09-Feb-18 10:52 35.215254 -119.108906 129 37156ft 451kts
09-Feb-18 10:53 35.132959 -118.994575 129 37158ft 452kts
09-Feb-18 10:54 35.050133 -118.879889 129 37187ft 453kts
09-Feb-18 10:55 34.966675 -118.764718 130 37224ft 453kts
09-Feb-18 10:56 34.884123 -118.651259 130 37189ft 451kts
09-Feb-18 10:57 34.804977 -118.543097 130 37205ft 451kts
09-Feb-18 10:58 34.722254 -118.430042 130 37177ft 451kts
09-Feb-18 10:59 34.643890 -118.323200 130 37146ft 451kts
09-Feb-18 11:00 34.560828 -118.210191 130 37173ft 451kts
09-Feb-18 11:01 34.477546 -118.097467 130 37163ft 451kts
09-Feb-18 11:02 34.408922 -117.978161 102 37153ft 443kts
09-Feb-18 11:03 34.376886 -117.834375 103 37118ft 444kts
09-Feb-18 11:04 34.342879 -117.692245 103 37129ft 444kts
09-Feb-18 11:05 34.308417 -117.549035 103 37137ft 444kts
09-Feb-18 11:06 34.273905 -117.406420 103 37116ft 444kts
09-Feb-18 11:07 34.240617 -117.269421 104 37095ft 444kts
09-Feb-18 11:08 34.205645 -117.126432 104 37093ft 445kts
09-Feb-18 11:09 34.170411 -116.983213 104 37092ft 447kts
09-Feb-18 11:10 34.134837 -116.839428 104 37093ft 448kts
09-Feb-18 11:11 34.099524 -116.697484 104 37081ft 448kts
09-Feb-18 11:12 34.063873 -116.554968 104 37076ft 444kts
09-Feb-18 11:13 34.028124 -116.412795 104 37075ft 445kts
09-Feb-18 11:14 33.992270 -116.270826 104 37093ft 445kts
09-Feb-18 11:15 33.956421 -116.129757 104 37088ft 445kts
09-Feb-18 11:16 33.920074 -115.987543 104 37053ft 445kts
09-Feb-18 11:17 33.883616 -115.846433 104 37043ft 445kts
09-Feb-18 11:18 33.846798 -115.704328 104 37047ft 445kts
09-Feb-18 11:19 33.809906 -115.562261 104 37047ft 445kts
09-Feb-18 11:20 33.772939 -115.420657 104 37047ft 445kts
09-Feb-18 11:21 33.735874 -115.279224 105 37064ft 445kts
09-Feb-18 11:22 33.698597 -115.137836 105 37084ft 446kts
09-Feb-18 11:23 33.660932 -114.995799 105 37084ft 448kts
09-Feb-18 11:24 33.622924 -114.853187 105 37085ft 448kts
09-Feb-18 11:25 33.586487 -114.710650 101 36998ft 450kts
09-Feb-18 11:26 33.558119 -114.565553 100 34830ft 443kts
09-Feb-18 11:27 33.530149 -114.421861 100 31972ft 448kts
09-Feb-18 11:28 33.502373 -114.280055 101 28590ft 455kts
09-Feb-18 11:29 33.475831 -114.145556 101 26008ft 440kts
09-Feb-18 11:30 33.455423 -114.042097 101 24346ft 455kts
09-Feb-18 11:31 33.434066 -113.940585 104 22962ft 461kts
09-Feb-18 11:32 33.423171 -113.789233 92 21103ft 459kts
09-Feb-18 11:33 33.411618 -113.638885 93 19451ft 451kts
09-Feb-18 11:34 33.399314 -113.491148 94 17921ft 442kts
09-Feb-18 11:35 33.387230 -113.346793 94 16543ft 433kts
09-Feb-18 11:36 33.375395 -113.204289 94 15863ft 424kts
09-Feb-18 11:37 33.364547 -113.077726 94 15358ft 349kts
09-Feb-18 11:38 33.354664 -112.963522 94 14233ft 348kts
09-Feb-18 11:39 33.344650 -112.849261 95 13140ft 344kts
09-Feb-18 11:40 33.334667 -112.736498 95 12190ft 338kts
09-Feb-18 11:41 33.352915 -112.629403 64 12205ft 338kts
09-Feb-18 11:42 33.391761 -112.527857 64 12201ft 337kts
09-Feb-18 11:43 33.427117 -112.425626 77 11264ft 322kts
09-Feb-18 11:44 33.428766 -112.324838 89 9442ft 305kts
09-Feb-18 11:45 33.444102 -112.229234 46 6961ft 296kts
09-Feb-18 11:46 33.517528 -112.206886 345 5154ft 269kts
09-Feb-18 11:47 33.549917 -112.264796 249 5116ft 205kts
09-Feb-18 11:48 33.504723 -112.279759 130 5091ft 178kts
09-Feb-18 11:49 33.484856 -112.226755 110 5096ft 173kts
09-Feb-18 11:50 33.461838 -112.176477 119 5088ft 174kts
09-Feb-18 11:51 33.449360 -112.120727 88 3739ft 187kts
09-Feb-18 11:52 33.429469 -112.064369 102 2129ft 180kts
09-Feb-18 11:53 33.429013 -112.013115 99 1136ft 73kts
09-Feb-18 11:54 33.428904 -112.011543 115 1135ft 0kts

Navigation Log

Ident Type
1. KSFO Airport
2. BOILE Fix
3. BLH Navaid
4. KPHX Airport